createdAt,value
2023-06-28T00:01:38.604Z,17.14
2023-06-28T00:04:07.039Z,17.16
2023-06-28T00:06:34.828Z,17.24
2023-06-28T00:09:03.134Z,17.21
2023-06-28T00:11:32.199Z,17.14
2023-06-28T00:14:00.324Z,17.18
2023-06-28T00:16:28.258Z,17.15
2023-06-28T00:19:01.956Z,17.08
2023-06-28T00:21:29.992Z,17.15
2023-06-28T00:23:57.676Z,17.14
2023-06-28T00:26:26.036Z,17.11
2023-06-28T00:28:55.068Z,17.02
2023-06-28T00:31:22.819Z,17.03
2023-06-28T00:33:50.833Z,17.00
2023-06-28T00:36:18.521Z,17.02
2023-06-28T00:38:46.341Z,17.03
2023-06-28T00:41:14.025Z,16.64
2023-06-28T00:43:41.969Z,16.95
2023-06-28T00:46:10.986Z,16.97
2023-06-28T00:48:41.375Z,17.01
2023-06-28T00:51:09.197Z,16.95
2023-06-28T00:53:36.885Z,16.95
2023-06-28T00:56:05.057Z,16.96
2023-06-28T00:58:33.397Z,16.92
2023-06-28T01:01:02.891Z,16.85
2023-06-28T01:03:32.036Z,16.86
2023-06-28T01:06:01.580Z,16.77
2023-06-28T01:08:29.908Z,16.73
2023-06-28T01:10:58.254Z,16.71
2023-06-28T01:13:26.858Z,16.56
2023-06-28T01:15:54.829Z,16.50
2023-06-28T01:18:25.048Z,16.50
2023-06-28T01:20:56.013Z,16.48
2023-06-28T01:23:26.422Z,16.53
2023-06-28T01:25:55.060Z,16.52
2023-06-28T01:28:23.741Z,16.52
2023-06-28T01:30:54.346Z,16.46
2023-06-28T01:33:22.194Z,16.04
2023-06-28T01:35:50.496Z,16.46
2023-06-28T01:38:20.021Z,16.23
2023-06-28T01:40:51.926Z,16.43
2023-06-28T01:43:20.825Z,16.40
2023-06-28T01:45:51.295Z,16.40
2023-06-28T01:48:19.424Z,16.36
2023-06-28T01:50:48.161Z,16.39
2023-06-28T01:53:15.861Z,16.20
2023-06-28T01:55:45.789Z,16.37
2023-06-28T01:58:15.250Z,16.29
2023-06-28T02:00:43.536Z,16.38
2023-06-28T02:03:11.814Z,16.41
2023-06-28T02:05:41.044Z,16.41
2023-06-28T02:08:08.708Z,16.37
2023-06-28T02:10:37.101Z,16.36
2023-06-28T02:13:07.555Z,16.39
2023-06-28T02:15:37.124Z,16.48
2023-06-28T02:18:06.175Z,16.42
2023-06-28T02:20:34.066Z,16.44
2023-06-28T02:23:04.465Z,16.44
2023-06-28T02:25:32.187Z,16.43
2023-06-28T02:27:59.974Z,16.39
2023-06-28T02:30:27.650Z,16.40
2023-06-28T02:32:56.728Z,16.34
2023-06-28T02:35:24.442Z,16.39
2023-06-28T02:37:52.683Z,16.34
2023-06-28T02:40:20.881Z,16.31
2023-06-28T02:42:48.705Z,16.30
2023-06-28T02:45:16.539Z,16.38
2023-06-28T02:47:44.669Z,16.35
2023-06-28T02:50:14.097Z,16.37
2023-06-28T02:52:59.149Z,16.32
2023-06-28T02:55:28.654Z,16.30
2023-06-28T02:57:58.965Z,16.38
2023-06-28T03:00:26.628Z,16.44
2023-06-28T03:02:54.711Z,16.36
2023-06-28T03:05:25.286Z,16.34
2023-06-28T03:07:53.471Z,16.35
2023-06-28T03:10:21.223Z,16.35
2023-06-28T03:12:49.410Z,16.31
2023-06-28T03:15:17.372Z,16.26
2023-06-28T03:17:45.237Z,16.16
2023-06-28T03:20:15.190Z,15.90
2023-06-28T03:22:44.484Z,16.25
2023-06-28T03:25:12.129Z,16.37
2023-06-28T03:27:40.171Z,16.36
2023-06-28T03:30:10.200Z,16.39
2023-06-28T03:32:38.282Z,16.36
2023-06-28T03:35:07.079Z,16.35
2023-06-28T03:37:35.721Z,16.34
2023-06-28T03:40:05.587Z,16.50
2023-06-28T03:42:33.674Z,16.40
2023-06-28T03:45:01.382Z,16.41
2023-06-28T03:47:29.755Z,16.37
2023-06-28T03:49:57.460Z,16.49
2023-06-28T03:52:27.396Z,16.47
2023-06-28T03:54:55.335Z,16.42
2023-06-28T03:57:24.454Z,16.40
2023-06-28T03:59:52.464Z,16.40
2023-06-28T04:02:21.166Z,16.40
2023-06-28T04:04:49.805Z,16.45
2023-06-28T04:07:18.040Z,16.53
2023-06-28T04:09:45.956Z,16.52
2023-06-28T04:12:13.985Z,16.49
2023-06-28T04:14:43.013Z,16.56
2023-06-28T04:17:10.958Z,16.54
2023-06-28T04:19:38.704Z,16.50
2023-06-28T04:22:07.296Z,16.54
2023-06-28T04:24:34.988Z,16.55
2023-06-28T04:27:03.511Z,16.36
2023-06-28T04:29:31.525Z,16.63
2023-06-28T04:32:01.465Z,16.58
2023-06-28T04:34:29.462Z,16.64
2023-06-28T04:37:14.699Z,16.62
2023-06-28T04:39:45.127Z,16.71
2023-06-28T04:42:15.488Z,16.66
2023-06-28T04:44:44.479Z,16.66
2023-06-28T04:47:17.278Z,16.79
2023-06-28T04:49:48.093Z,16.81
2023-06-28T04:52:15.799Z,16.83
2023-06-28T04:54:44.048Z,16.88
2023-06-28T04:57:11.885Z,16.31
2023-06-28T04:59:39.886Z,16.90
2023-06-28T05:02:07.852Z,16.80
2023-06-28T05:04:38.542Z,16.82
2023-06-28T05:07:08.024Z,16.82
2023-06-28T05:09:38.009Z,16.82
2023-06-28T05:12:07.120Z,16.89
2023-06-28T05:14:35.342Z,16.95
2023-06-28T05:17:03.061Z,16.96
2023-06-28T05:19:30.748Z,16.98
2023-06-28T05:21:59.716Z,17.02
2023-06-28T05:24:27.413Z,17.07
2023-06-28T05:26:55.312Z,17.11
2023-06-28T05:29:23.006Z,17.06
2023-06-28T05:31:50.911Z,17.08
2023-06-28T05:34:18.566Z,17.13
2023-06-28T05:36:46.482Z,17.21
2023-06-28T05:39:15.498Z,17.29
2023-06-28T05:41:43.220Z,17.36
2023-06-28T05:44:10.876Z,17.41
2023-06-28T05:46:38.679Z,17.43
2023-06-28T05:49:09.494Z,17.41
2023-06-28T05:51:38.352Z,17.54
2023-06-28T05:54:06.357Z,17.55
2023-06-28T05:56:35.644Z,17.66
2023-06-28T05:59:03.342Z,17.72
2023-06-28T06:01:31.464Z,17.82
2023-06-28T06:03:59.180Z,17.90
2023-06-28T06:06:26.933Z,17.93
2023-06-28T06:08:54.573Z,17.93
2023-06-28T06:11:22.269Z,17.98
2023-06-28T06:13:51.566Z,17.98
2023-06-28T06:16:20.045Z,18.03
2023-06-28T06:18:47.786Z,18.11
2023-06-28T06:21:15.602Z,18.22
2023-06-28T06:23:43.963Z,18.35
2023-06-28T06:26:11.902Z,18.48
2023-06-28T06:28:39.885Z,18.57
2023-06-28T06:31:14.595Z,18.68
2023-06-28T06:33:42.686Z,18.74
2023-06-28T06:36:10.470Z,19.00
2023-06-28T06:38:38.653Z,18.95
2023-06-28T06:41:06.673Z,18.88
2023-06-28T06:43:34.483Z,18.88
2023-06-28T06:46:02.901Z,18.84
2023-06-28T06:48:31.988Z,18.81
2023-06-28T06:50:59.825Z,18.94
2023-06-28T06:53:28.153Z,19.00
2023-06-28T06:55:56.544Z,19.05
2023-06-28T06:58:24.934Z,19.05
2023-06-28T07:00:52.876Z,19.32
2023-06-28T07:03:21.036Z,19.36
2023-06-28T07:05:50.352Z,19.45
2023-06-28T07:08:19.864Z,19.51
2023-06-28T07:10:47.701Z,19.53
2023-06-28T07:13:15.772Z,19.65
2023-06-28T07:15:44.935Z,19.60
2023-06-28T07:18:12.935Z,19.75
2023-06-28T07:20:40.920Z,19.73
2023-06-28T07:23:09.936Z,19.72
2023-06-28T07:25:38.082Z,20.03
2023-06-28T07:28:05.845Z,19.91
2023-06-28T07:30:53.050Z,20.08
2023-06-28T07:33:20.712Z,20.21
2023-06-28T07:35:48.871Z,20.37
2023-06-28T07:38:18.948Z,20.29
2023-06-28T07:40:47.251Z,20.46
2023-06-28T07:43:15.146Z,20.42
2023-06-28T07:45:43.366Z,20.51
2023-06-28T07:48:11.779Z,20.44
2023-06-28T07:50:39.581Z,20.55
2023-06-28T07:53:07.479Z,20.45
2023-06-28T07:55:36.515Z,20.50
2023-06-28T07:58:04.694Z,20.57
2023-06-28T08:00:32.583Z,20.63
2023-06-28T08:03:01.109Z,20.64
2023-06-28T08:05:30.267Z,20.67
2023-06-28T08:07:58.338Z,20.60
2023-06-28T08:10:28.463Z,20.68
2023-06-28T08:12:58.836Z,20.63
2023-06-28T08:15:26.987Z,20.70
2023-06-28T08:17:54.905Z,20.95
2023-06-28T08:20:22.924Z,21.09
2023-06-28T08:22:50.691Z,20.99
2023-06-28T08:25:18.650Z,21.15
2023-06-28T08:27:46.311Z,21.36
2023-06-28T08:30:15.688Z,21.17
2023-06-28T08:32:43.721Z,21.39
2023-06-28T08:35:12.071Z,21.57
2023-06-28T08:37:40.069Z,21.70
2023-06-28T08:40:08.739Z,22.04
2023-06-28T08:42:37.061Z,21.92
2023-06-28T08:45:06.001Z,21.58
2023-06-28T08:47:35.357Z,21.91
2023-06-28T08:50:04.643Z,21.97
2023-06-28T08:52:36.775Z,21.97
2023-06-28T08:57:40.695Z,22.72
2023-06-28T09:00:11.845Z,22.69
2023-06-28T09:02:43.177Z,22.68
2023-06-28T09:05:11.960Z,22.56
2023-06-28T09:07:41.333Z,22.36
2023-06-28T09:10:10.601Z,22.76
2023-06-28T09:12:39.637Z,23.49
2023-06-28T09:15:08.937Z,23.58
2023-06-28T09:17:36.978Z,23.65
2023-06-28T09:20:18.233Z,23.86
2023-06-28T09:22:55.946Z,23.88
2023-06-28T09:25:23.924Z,23.82
2023-06-28T09:27:51.674Z,23.75
2023-06-28T09:30:39.412Z,23.95
2023-06-28T09:33:07.219Z,23.89
2023-06-28T09:35:39.042Z,23.81
2023-06-28T09:38:09.862Z,24.02
2023-06-28T09:40:38.443Z,24.24
2023-06-28T09:43:06.325Z,24.03
2023-06-28T09:45:37.371Z,23.81
2023-06-28T09:48:06.622Z,24.23
2023-06-28T09:50:41.358Z,24.07
2023-06-28T09:53:10.418Z,24.30
2023-06-28T09:55:44.666Z,24.44
2023-06-28T09:58:14.208Z,24.01
2023-06-28T10:00:43.189Z,24.07
2023-06-28T10:03:12.807Z,24.20
2023-06-28T10:05:44.268Z,24.50
2023-06-28T10:08:13.662Z,24.33
2023-06-28T10:10:42.316Z,24.69
2023-06-28T10:13:13.299Z,24.80
2023-06-28T10:15:49.595Z,24.92
2023-06-28T10:18:18.137Z,24.87
2023-06-28T10:20:48.441Z,24.33
2023-06-28T10:23:18.841Z,24.51
2023-06-28T10:25:48.120Z,24.27
2023-06-28T10:28:16.275Z,24.48
2023-06-28T10:30:45.233Z,24.64
2023-06-28T10:33:13.241Z,24.89
2023-06-28T10:35:42.810Z,25.01
2023-06-28T10:38:12.395Z,24.82
2023-06-28T10:40:40.467Z,25.10
2023-06-28T10:43:08.684Z,25.16
2023-06-28T10:45:37.304Z,24.84
2023-06-28T10:48:06.269Z,24.83
2023-06-28T10:50:42.153Z,24.91
2023-06-28T10:53:22.914Z,24.95
2023-06-28T10:56:15.056Z,25.23
2023-06-28T10:58:44.432Z,25.74
2023-06-28T11:01:12.996Z,26.02
2023-06-28T11:03:43.717Z,25.80
2023-06-28T11:06:13.071Z,24.99
2023-06-28T11:08:44.269Z,24.97
2023-06-28T11:11:22.667Z,25.04
2023-06-28T11:13:50.800Z,25.30
2023-06-28T11:16:21.324Z,25.82
2023-06-28T11:18:50.167Z,26.23
2023-06-28T11:21:19.429Z,26.36
2023-06-28T11:23:49.707Z,26.31
2023-06-28T11:26:19.098Z,25.60
2023-06-28T11:28:52.066Z,25.75
2023-06-28T11:31:23.030Z,24.25
2023-06-28T11:33:52.379Z,24.34
2023-06-28T11:36:20.586Z,24.25
2023-06-28T11:38:49.658Z,24.24
2023-06-28T11:41:18.415Z,24.33
2023-06-28T11:43:47.305Z,24.31
2023-06-28T11:46:20.503Z,24.49
2023-06-28T11:48:49.857Z,24.88
2023-06-28T11:51:18.373Z,25.79
2023-06-28T11:53:51.065Z,25.88
2023-06-28T11:56:19.310Z,25.85
2023-06-28T11:58:47.241Z,26.65
2023-06-28T12:01:22.640Z,26.55
2023-06-28T12:03:50.718Z,25.92
2023-06-28T12:06:18.873Z,25.70
2023-06-28T12:08:46.900Z,25.33
2023-06-28T12:11:17.061Z,25.34
2023-06-28T12:13:46.221Z,25.26
2023-06-28T12:16:15.061Z,25.26
2023-06-28T12:19:00.082Z,26.33
2023-06-28T12:21:29.949Z,26.55
2023-06-28T12:24:14.688Z,27.38
2023-06-28T12:26:45.734Z,27.10
2023-06-28T12:29:13.844Z,26.76
2023-06-28T12:31:44.507Z,25.88
2023-06-28T12:34:12.316Z,25.52
2023-06-28T12:36:41.595Z,25.18
2023-06-28T12:39:10.052Z,25.10
2023-06-28T12:41:37.721Z,25.05
2023-06-28T12:44:06.839Z,25.39
2023-06-28T12:46:34.859Z,25.85
2023-06-28T12:49:05.886Z,25.79
2023-06-28T12:51:33.894Z,25.79
2023-06-28T12:54:01.646Z,25.85
2023-06-28T12:56:29.808Z,25.90
2023-06-28T12:58:57.475Z,25.60
2023-06-28T13:01:26.878Z,25.58
2023-06-28T13:03:56.249Z,25.54
2023-06-28T13:06:24.136Z,25.78
2023-06-28T13:08:53.659Z,25.67
2023-06-28T13:11:21.377Z,25.85
2023-06-28T13:13:49.389Z,25.90
2023-06-28T13:16:17.131Z,26.04
2023-06-28T13:18:46.576Z,25.96
2023-06-28T13:21:14.298Z,26.06
2023-06-28T13:23:42.017Z,25.91
2023-06-28T13:26:09.989Z,25.61
2023-06-28T13:28:37.959Z,25.93
2023-06-28T13:31:06.028Z,25.77
2023-06-28T13:33:33.775Z,26.11
2023-06-28T13:36:03.038Z,25.94
2023-06-28T13:38:30.785Z,25.97
2023-06-28T13:40:58.705Z,25.98
2023-06-28T13:43:26.501Z,25.65
2023-06-28T13:45:54.387Z,25.66
2023-06-28T13:48:22.600Z,25.26
2023-06-28T13:50:50.363Z,25.50
2023-06-28T13:53:19.740Z,26.17
2023-06-28T13:55:47.536Z,25.98
2023-06-28T13:58:15.367Z,25.83
2023-06-28T14:00:43.693Z,25.96
2023-06-28T14:03:12.615Z,26.00
2023-06-28T14:05:40.571Z,26.10
2023-06-28T14:08:08.611Z,25.86
2023-06-28T14:10:38.478Z,25.95
2023-06-28T14:13:06.614Z,25.78
2023-06-28T14:15:34.654Z,25.82
2023-06-28T14:18:02.699Z,25.88
2023-06-28T14:20:30.940Z,26.61
2023-06-28T14:22:59.122Z,26.65
2023-06-28T14:25:26.910Z,26.34
2023-06-28T14:27:56.324Z,26.17
2023-06-28T14:30:25.845Z,25.88
2023-06-28T14:32:53.928Z,25.65
2023-06-28T14:35:23.531Z,25.26
2023-06-28T14:37:51.921Z,25.18
2023-06-28T14:40:20.582Z,25.10
2023-06-28T14:42:48.323Z,25.69
2023-06-28T14:45:17.893Z,26.25
2023-06-28T14:47:45.759Z,26.42
2023-06-28T14:50:14.628Z,26.33
2023-06-28T14:52:42.307Z,25.91
2023-06-28T14:55:10.930Z,25.57
2023-06-28T14:57:38.909Z,25.38
2023-06-28T15:00:08.356Z,25.60
2023-06-28T15:02:38.539Z,25.99
2023-06-28T15:05:06.995Z,26.34
2023-06-28T15:07:35.021Z,26.50
2023-06-28T15:10:16.716Z,26.51
2023-06-28T15:12:44.466Z,26.82
2023-06-28T15:15:12.577Z,27.04
2023-06-28T15:17:41.933Z,27.27
2023-06-28T15:20:10.845Z,27.52
2023-06-28T15:22:39.041Z,27.66
2023-06-28T15:25:08.479Z,27.48
2023-06-28T15:27:38.964Z,27.51
2023-06-28T15:30:21.812Z,27.54
2023-06-28T15:32:51.694Z,27.54
2023-06-28T15:35:20.896Z,27.21
2023-06-28T15:37:48.926Z,26.66
2023-06-28T15:40:17.077Z,26.43
2023-06-28T15:42:44.844Z,26.30
2023-06-28T15:45:26.746Z,25.84
2023-06-28T15:47:56.067Z,25.51
2023-06-28T15:50:24.589Z,25.65
2023-06-28T15:52:52.584Z,25.73
2023-06-28T15:55:25.710Z,25.55
2023-06-28T15:57:53.866Z,25.43
2023-06-28T16:00:21.826Z,25.61
2023-06-28T16:02:53.625Z,26.08
2023-06-28T16:05:24.198Z,26.38
2023-06-28T16:07:53.125Z,26.60
2023-06-28T16:10:23.354Z,26.08
2023-06-28T16:13:01.117Z,25.73
2023-06-28T16:15:29.192Z,25.56
2023-06-28T16:17:56.964Z,25.84
2023-06-28T16:20:34.776Z,25.56
2023-06-28T16:23:02.491Z,26.02
2023-06-28T16:25:30.224Z,26.43
2023-06-28T16:27:59.181Z,26.64
2023-06-28T16:33:20.783Z,26.21
2023-06-28T16:35:49.158Z,25.97
2023-06-28T16:38:17.462Z,26.24
2023-06-28T16:40:45.495Z,25.63
2023-06-28T16:46:07.025Z,25.17
2023-06-28T16:48:48.949Z,24.88
2023-06-28T16:51:17.248Z,26.22
2023-06-28T16:53:47.087Z,26.19
2023-06-28T16:56:14.992Z,25.36
2023-06-28T16:58:42.707Z,24.59
2023-06-28T17:01:12.276Z,24.84
2023-06-28T17:03:42.353Z,24.52
2023-06-28T17:06:11.379Z,24.46
2023-06-28T17:08:39.245Z,24.27
2023-06-28T17:11:11.074Z,24.30
2023-06-28T17:13:38.752Z,23.97
2023-06-28T17:16:07.383Z,23.94
2023-06-28T17:18:36.586Z,23.65
2023-06-28T17:21:04.562Z,23.55
2023-06-28T17:23:32.421Z,23.44
2023-06-28T17:26:00.915Z,23.16
2023-06-28T17:28:29.385Z,23.16
2023-06-28T17:30:57.017Z,23.07
2023-06-28T17:33:27.047Z,23.15
2023-06-28T17:35:58.232Z,23.36
2023-06-28T17:38:25.943Z,23.52
2023-06-28T17:40:53.798Z,23.63
2023-06-28T17:43:22.378Z,23.82
2023-06-28T17:45:50.155Z,23.80
2023-06-28T17:48:17.780Z,23.77
2023-06-28T17:50:45.917Z,23.70
2023-06-28T17:53:15.045Z,23.72
2023-06-28T17:55:42.992Z,23.53
2023-06-28T17:58:10.649Z,23.41
2023-06-28T18:00:39.376Z,23.27
2023-06-28T18:03:07.776Z,23.15
2023-06-28T18:05:36.690Z,23.04
2023-06-28T18:08:05.526Z,22.91
2023-06-28T18:10:35.193Z,22.98
2023-06-28T18:13:03.208Z,22.94
2023-06-28T18:15:30.988Z,22.81
2023-06-28T18:17:59.038Z,22.73
2023-06-28T18:20:27.058Z,22.73
2023-06-28T18:22:54.813Z,22.73
2023-06-28T18:25:23.674Z,22.71
2023-06-28T18:27:52.641Z,22.78
2023-06-28T18:30:21.743Z,22.75
2023-06-28T18:32:49.883Z,22.64
2023-06-28T18:35:17.698Z,22.56
2023-06-28T18:37:59.314Z,22.50
2023-06-28T18:40:27.953Z,22.44
2023-06-28T18:42:57.119Z,22.43
2023-06-28T18:45:25.359Z,22.42
2023-06-28T18:47:53.112Z,22.42
2023-06-28T18:50:20.868Z,22.35
2023-06-28T18:52:48.576Z,22.24
2023-06-28T18:55:17.229Z,22.17
2023-06-28T18:57:46.993Z,22.05
2023-06-28T19:00:18.062Z,21.88
2023-06-28T19:02:52.868Z,21.64
2023-06-28T19:05:20.634Z,21.52
2023-06-28T19:07:48.349Z,21.37
2023-06-28T19:10:16.181Z,21.23
2023-06-28T19:12:44.136Z,21.06
2023-06-28T19:15:12.690Z,20.94
2023-06-28T19:17:41.738Z,20.92
2023-06-28T19:20:11.516Z,20.78
2023-06-28T19:22:39.480Z,20.61
2023-06-28T19:25:08.831Z,20.60
2023-06-28T19:27:36.546Z,20.50
2023-06-28T19:30:04.957Z,20.39
2023-06-28T19:32:32.682Z,20.40
2023-06-28T19:35:01.919Z,20.30
2023-06-28T19:37:29.585Z,20.20
2023-06-28T19:39:57.487Z,20.15
2023-06-28T19:42:25.370Z,19.96
2023-06-28T19:44:53.100Z,19.74
2023-06-28T19:47:21.497Z,19.62
2023-06-28T19:49:49.151Z,19.41
2023-06-28T19:52:18.474Z,19.23
2023-06-28T19:54:46.207Z,19.06
2023-06-28T19:57:14.329Z,18.95
2023-06-28T19:59:43.552Z,18.87
2023-06-28T20:02:11.863Z,18.72
2023-06-28T20:04:40.361Z,18.61
2023-06-28T20:07:08.250Z,18.44
2023-06-28T20:09:37.671Z,18.50
2023-06-28T20:12:06.160Z,18.47
2023-06-28T20:14:34.328Z,18.35
2023-06-28T20:17:04.258Z,18.36
2023-06-28T20:19:31.972Z,18.36
2023-06-28T20:22:01.177Z,18.28
2023-06-28T20:24:30.567Z,18.18
2023-06-28T20:27:00.432Z,18.30
2023-06-28T20:29:30.214Z,18.31
2023-06-28T20:32:01.665Z,18.18
2023-06-28T20:34:29.455Z,18.13
2023-06-28T20:36:57.400Z,18.03
2023-06-28T20:39:25.266Z,17.93
2023-06-28T20:41:53.832Z,17.89
2023-06-28T20:44:23.267Z,17.84
2023-06-28T20:46:51.120Z,17.76
2023-06-28T20:49:18.832Z,17.67
2023-06-28T20:51:46.741Z,17.62
2023-06-28T20:54:18.040Z,17.58
2023-06-28T20:56:45.799Z,17.57
2023-06-28T20:59:14.171Z,17.50
2023-06-28T21:01:44.870Z,17.48
2023-06-28T21:04:12.866Z,17.51
2023-06-28T21:06:41.781Z,17.45
2023-06-28T21:09:12.878Z,17.41
2023-06-28T21:11:40.791Z,17.34
2023-06-28T21:14:08.544Z,17.32
2023-06-28T21:16:36.532Z,17.30
2023-06-28T21:19:05.586Z,17.32
2023-06-28T21:21:34.266Z,17.33
2023-06-28T21:24:01.941Z,17.36
2023-06-28T21:26:29.879Z,17.42
2023-06-28T21:28:57.519Z,17.36
2023-06-28T21:31:28.765Z,17.39
2023-06-28T21:33:57.485Z,17.54
2023-06-28T21:36:27.274Z,17.63
2023-06-28T21:38:55.005Z,17.68
2023-06-28T21:41:23.061Z,17.72
2023-06-28T21:43:50.942Z,17.82
2023-06-28T21:46:19.067Z,17.84
2023-06-28T21:48:47.466Z,17.82
2023-06-28T21:51:15.582Z,17.78
2023-06-28T21:53:48.059Z,17.87
2023-06-28T21:56:16.542Z,17.86
2023-06-28T21:58:51.531Z,17.92
2023-06-28T22:01:20.662Z,17.96
2023-06-28T22:03:48.394Z,17.88
2023-06-28T22:06:18.055Z,17.91
2023-06-28T22:08:47.104Z,17.76
2023-06-28T22:11:15.063Z,17.66
2023-06-28T22:13:46.022Z,17.58
2023-06-28T22:16:15.183Z,17.68
2023-06-28T22:18:43.793Z,17.57
2023-06-28T22:21:12.087Z,17.64
2023-06-28T22:23:39.810Z,17.69
2023-06-28T22:29:05.226Z,17.74
2023-06-28T22:31:33.685Z,17.76
2023-06-28T22:34:01.697Z,17.44
2023-06-28T22:36:29.415Z,17.56
2023-06-28T22:38:58.825Z,17.45
2023-06-28T22:41:26.974Z,17.52
2023-06-28T22:43:54.928Z,17.45
2023-06-28T22:46:24.094Z,17.49
2023-06-28T22:48:53.073Z,17.63
2023-06-28T22:51:20.771Z,17.71
2023-06-28T22:56:50.977Z,17.73
2023-06-28T22:59:18.919Z,17.64
2023-06-28T23:01:47.248Z,17.34
2023-06-28T23:04:15.520Z,17.05
2023-06-28T23:06:43.228Z,16.91
2023-06-28T23:09:11.203Z,16.82
2023-06-28T23:11:38.875Z,16.92
2023-06-28T23:14:08.146Z,17.10
2023-06-28T23:16:39.816Z,16.86
2023-06-28T23:19:09.702Z,17.13
2023-06-28T23:21:37.553Z,17.02
2023-06-28T23:24:05.625Z,16.98
2023-06-28T23:26:33.753Z,16.97
2023-06-28T23:29:01.677Z,16.98
2023-06-28T23:31:30.707Z,17.10
2023-06-28T23:34:01.241Z,17.18
2023-06-28T23:36:30.248Z,17.21
2023-06-28T23:38:58.470Z,17.26
2023-06-28T23:41:28.459Z,17.21
2023-06-28T23:43:56.992Z,17.23
2023-06-28T23:46:24.644Z,17.18
2023-06-28T23:48:54.705Z,17.30
2023-06-28T23:51:23.771Z,17.28
2023-06-28T23:53:51.747Z,17.25
2023-06-28T23:56:21.489Z,17.15
2023-06-28T23:58:49.457Z,17.14
